createdAt,value
2017-10-11T00:00:27.795Z,69.30
2017-10-11T00:02:56.204Z,69.10
2017-10-11T00:05:23.831Z,69.00
2017-10-11T00:07:51.519Z,68.80
2017-10-11T00:10:19.219Z,68.80
2017-10-11T00:12:46.930Z,68.70
2017-10-11T00:15:15.388Z,68.70
2017-10-11T00:17:43.096Z,68.60
2017-10-11T00:20:10.837Z,68.50
2017-10-11T00:22:38.604Z,68.40
2017-10-11T00:25:06.988Z,68.30
2017-10-11T00:27:34.695Z,68.30
2017-10-11T00:30:02.462Z,68.10
2017-10-11T00:32:30.053Z,68.10
2017-10-11T00:34:57.688Z,68.00
2017-10-11T00:37:25.351Z,67.80
2017-10-11T00:39:53.007Z,67.70
2017-10-11T00:42:20.649Z,67.70
2017-10-11T00:44:48.402Z,67.60
2017-10-11T00:47:17.841Z,67.60
2017-10-11T00:49:47.208Z,67.40
2017-10-11T00:52:14.859Z,67.30
2017-10-11T00:54:43.333Z,67.30
2017-10-11T00:57:11.981Z,67.30
2017-10-11T00:59:39.753Z,67.30
2017-10-11T01:02:07.390Z,67.50
2017-10-11T01:04:35.032Z,67.30
2017-10-11T01:07:02.759Z,67.20
2017-10-11T01:09:30.346Z,67.20
2017-10-11T01:11:58.801Z,67.20
2017-10-11T01:14:26.477Z,67.20
2017-10-11T01:16:55.089Z,67.30
2017-10-11T01:19:22.826Z,67.30
2017-10-11T01:21:51.413Z,67.20
2017-10-11T01:24:19.173Z,67.20
2017-10-11T01:26:48.817Z,67.00
2017-10-11T01:29:16.563Z,67.10
2017-10-11T01:31:45.037Z,66.90
2017-10-11T01:34:13.683Z,67.10
2017-10-11T01:36:41.479Z,67.10
2017-10-11T01:39:09.237Z,67.20
2017-10-11T01:41:36.927Z,67.30
2017-10-11T01:44:05.397Z,67.20
2017-10-11T01:46:33.830Z,67.10
2017-10-11T01:49:02.460Z,67.10
2017-10-11T01:51:30.158Z,67.10
2017-10-11T01:53:57.895Z,68.10
2017-10-11T01:56:26.369Z,67.20
2017-10-11T01:58:55.134Z,67.20
2017-10-11T02:01:22.862Z,67.20
2017-10-11T02:03:50.632Z,67.20
2017-10-11T02:06:18.736Z,67.20
2017-10-11T02:08:46.395Z,67.10
2017-10-11T02:11:14.091Z,67.10
2017-10-11T02:13:42.635Z,67.00
2017-10-11T02:16:10.416Z,67.00
2017-10-11T02:18:38.148Z,67.10
2017-10-11T02:21:05.824Z,67.10
2017-10-11T02:23:33.539Z,67.10
2017-10-11T02:26:01.249Z,67.20
2017-10-11T02:28:28.861Z,67.20
2017-10-11T02:30:57.373Z,67.20
2017-10-11T02:33:25.141Z,67.20
2017-10-11T02:35:52.768Z,67.20
2017-10-11T02:38:21.238Z,67.30
2017-10-11T02:40:49.171Z,67.20
2017-10-11T02:43:16.809Z,67.20
2017-10-11T02:45:44.541Z,67.00
2017-10-11T02:48:13.080Z,67.10
2017-10-11T02:50:40.825Z,67.10
2017-10-11T02:53:08.554Z,67.10
2017-10-11T02:55:36.132Z,67.10
2017-10-11T02:58:03.895Z,67.60
2017-10-11T03:00:31.742Z,67.20
2017-10-11T03:02:59.493Z,67.20
2017-10-11T03:05:27.133Z,67.20
2017-10-11T03:07:55.560Z,67.20
2017-10-11T03:10:24.086Z,67.10
2017-10-11T03:12:51.989Z,67.00
2017-10-11T03:15:20.573Z,67.00
2017-10-11T03:17:48.265Z,67.00
2017-10-11T03:20:16.055Z,67.10
2017-10-11T03:22:43.675Z,67.10
2017-10-11T03:25:12.178Z,66.90
2017-10-11T03:27:39.898Z,66.90
2017-10-11T03:30:07.450Z,66.80
2017-10-11T03:32:35.254Z,66.70
2017-10-11T03:35:03.798Z,66.60
2017-10-11T03:37:31.624Z,66.50
2017-10-11T03:39:59.364Z,66.50
2017-10-11T03:42:27.853Z,66.70
2017-10-11T03:44:56.273Z,66.70
2017-10-11T03:47:24.088Z,66.60
2017-10-11T03:49:52.742Z,66.60
2017-10-11T03:52:20.534Z,66.60
2017-10-11T03:54:48.241Z,66.50
2017-10-11T03:57:15.989Z,66.60
2017-10-11T03:59:43.727Z,66.70
2017-10-11T04:02:11.417Z,66.80
2017-10-11T04:04:39.157Z,66.70
2017-10-11T04:07:06.766Z,66.50
2017-10-11T04:09:34.451Z,66.60
2017-10-11T04:12:02.151Z,66.40
2017-10-11T04:14:29.928Z,66.50
2017-10-11T04:16:58.480Z,66.60
2017-10-11T04:19:26.208Z,66.50
2017-10-11T04:21:53.905Z,66.70
2017-10-11T04:24:21.763Z,66.60
2017-10-11T04:26:49.469Z,66.50
2017-10-11T04:29:17.969Z,66.70
2017-10-11T04:31:46.748Z,66.60
2017-10-11T04:34:14.527Z,66.60
2017-10-11T04:36:42.463Z,66.70
2017-10-11T04:39:10.164Z,66.80
2017-10-11T04:41:37.869Z,66.80
2017-10-11T04:44:05.720Z,66.60
2017-10-11T04:46:33.524Z,66.70
2017-10-11T04:49:01.302Z,66.80
2017-10-11T04:51:29.818Z,67.00
2017-10-11T04:53:57.473Z,66.80
2017-10-11T04:56:25.247Z,67.00
2017-10-11T04:58:53.039Z,66.90
2017-10-11T05:01:20.767Z,66.90
2017-10-11T05:03:48.544Z,66.90
2017-10-11T05:06:16.249Z,66.90
2017-10-11T05:08:43.886Z,66.80
2017-10-11T05:11:11.674Z,66.70
2017-10-11T05:13:39.366Z,66.70
2017-10-11T05:16:07.871Z,66.80
2017-10-11T05:18:35.515Z,66.70
2017-10-11T05:21:03.205Z,66.60
2017-10-11T05:23:30.976Z,66.70
2017-10-11T05:25:58.678Z,66.70
2017-10-11T05:28:26.356Z,66.80
2017-10-11T05:30:54.795Z,66.70
2017-10-11T05:33:22.405Z,66.70
2017-10-11T05:35:50.063Z,66.80
2017-10-11T05:38:17.673Z,66.80
2017-10-11T05:40:45.181Z,66.80
2017-10-11T05:43:13.442Z,66.80
2017-10-11T05:45:40.901Z,66.60
2017-10-11T05:48:08.405Z,66.80
2017-10-11T05:50:36.109Z,66.80
2017-10-11T05:53:03.558Z,66.70
2017-10-11T05:55:31.316Z,66.80
2017-10-11T05:57:59.030Z,66.90
2017-10-11T06:00:26.763Z,66.90
2017-10-11T06:02:54.252Z,66.90
2017-10-11T06:05:23.642Z,66.90
2017-10-11T06:07:51.288Z,66.90
2017-10-11T06:10:18.916Z,67.00
2017-10-11T06:12:46.406Z,67.00
2017-10-11T06:15:14.123Z,67.00
2017-10-11T06:17:41.811Z,67.10
2017-10-11T06:20:09.583Z,67.00
2017-10-11T06:22:37.043Z,67.10
2017-10-11T06:25:04.546Z,66.90
2017-10-11T06:27:31.993Z,67.10
2017-10-11T06:30:00.205Z,67.10
2017-10-11T06:32:27.691Z,67.10
2017-10-11T06:34:55.142Z,67.00
2017-10-11T06:37:23.559Z,67.10
2017-10-11T06:39:51.005Z,67.20
2017-10-11T06:42:18.480Z,67.20
2017-10-11T06:44:46.729Z,67.00
2017-10-11T06:47:14.177Z,67.00
2017-10-11T06:49:41.658Z,66.90
2017-10-11T06:52:09.118Z,67.10
2017-10-11T06:54:36.566Z,67.00
2017-10-11T06:57:04.060Z,67.00
2017-10-11T06:59:32.322Z,67.00
2017-10-11T07:01:59.781Z,66.90
2017-10-11T07:04:28.038Z,67.10
2017-10-11T07:06:55.488Z,66.80
2017-10-11T07:09:22.945Z,66.70
2017-10-11T07:11:50.417Z,66.70
2017-10-11T07:14:17.879Z,66.70
2017-10-11T07:16:45.358Z,66.80
2017-10-11T07:19:13.601Z,66.90
2017-10-11T07:21:41.058Z,66.80
2017-10-11T07:24:08.545Z,66.70
2017-10-11T07:26:36.773Z,67.40
2017-10-11T07:29:04.287Z,66.60
2017-10-11T07:31:32.517Z,66.30
2017-10-11T07:34:00.002Z,66.30
2017-10-11T07:36:27.485Z,66.30
2017-10-11T07:38:54.961Z,66.10
2017-10-11T07:41:22.410Z,66.00
2017-10-11T07:43:49.897Z,65.90
2017-10-11T07:46:17.353Z,65.80
2017-10-11T07:48:44.825Z,65.70
2017-10-11T07:51:12.306Z,65.50
2017-10-11T07:53:39.762Z,65.50
2017-10-11T07:56:07.238Z,65.30
2017-10-11T08:01:08.701Z,66.00
2017-10-11T08:03:36.155Z,65.00
2017-10-11T08:06:03.615Z,64.70
2017-10-11T08:08:31.881Z,64.80
2017-10-11T08:10:59.370Z,64.70
2017-10-11T08:13:26.834Z,64.80
2017-10-11T08:15:55.132Z,64.90
2017-10-11T08:18:22.618Z,64.90
2017-10-11T08:20:50.090Z,65.00
2017-10-11T08:23:17.540Z,65.10
2017-10-11T08:25:45.026Z,65.10
2017-10-11T08:28:13.247Z,65.50
2017-10-11T08:30:40.717Z,65.40
2017-10-11T08:33:08.194Z,65.40
2017-10-11T08:35:35.650Z,65.00
2017-10-11T08:38:03.126Z,64.90
2017-10-11T08:40:31.408Z,65.10
2017-10-11T08:42:58.882Z,64.50
2017-10-11T08:45:27.120Z,64.60
2017-10-11T08:47:54.573Z,64.50
2017-10-11T08:50:22.054Z,64.60
2017-10-11T08:52:49.526Z,64.60
2017-10-11T08:55:16.987Z,64.40
2017-10-11T08:57:45.230Z,64.40
2017-10-11T09:00:12.686Z,64.40
2017-10-11T09:02:40.190Z,64.50
2017-10-11T09:05:07.637Z,64.50
2017-10-11T09:07:35.865Z,64.50
2017-10-11T09:10:03.403Z,64.40
2017-10-11T09:12:30.866Z,64.30
2017-10-11T09:14:58.321Z,64.20
2017-10-11T09:17:26.092Z,64.10
2017-10-11T09:19:53.536Z,63.90
2017-10-11T09:22:21.002Z,63.60
2017-10-11T09:24:48.478Z,63.40
2017-10-11T09:27:15.929Z,63.10
2017-10-11T09:29:43.412Z,62.90
2017-10-11T09:32:10.861Z,62.80
2017-10-11T09:34:38.345Z,62.60
2017-10-11T09:37:05.806Z,62.80
2017-10-11T09:39:34.097Z,62.60
2017-10-11T09:42:02.342Z,62.50
2017-10-11T09:44:29.798Z,62.50
2017-10-11T09:46:57.250Z,62.40
2017-10-11T09:49:24.722Z,62.40
2017-10-11T09:51:52.189Z,62.10
2017-10-11T09:54:20.442Z,62.10
2017-10-11T09:56:47.926Z,61.70
2017-10-11T09:59:16.180Z,60.70
2017-10-11T10:01:43.633Z,60.60
2017-10-11T10:04:11.131Z,60.10
2017-10-11T10:06:39.351Z,59.70
2017-10-11T10:09:06.845Z,59.60
2017-10-11T10:11:34.337Z,59.10
2017-10-11T10:14:01.813Z,59.20
2017-10-11T10:16:29.279Z,58.90
2017-10-11T10:18:57.019Z,58.70
2017-10-11T10:21:24.495Z,58.00
2017-10-11T10:23:51.953Z,57.90
2017-10-11T10:26:19.446Z,57.70
2017-10-11T10:28:46.917Z,57.80
2017-10-11T10:31:14.384Z,57.70
2017-10-11T10:33:42.630Z,57.80
2017-10-11T10:36:10.134Z,57.80
2017-10-11T10:38:38.397Z,57.90
2017-10-11T10:41:06.621Z,58.20
2017-10-11T10:43:34.093Z,57.50
2017-10-11T10:46:01.570Z,57.40
2017-10-11T10:48:29.013Z,57.50
2017-10-11T10:50:57.416Z,57.30
2017-10-11T10:53:24.866Z,57.20
2017-10-11T10:55:52.321Z,56.60
2017-10-11T10:58:19.817Z,56.00
2017-10-11T11:00:47.273Z,55.90
2017-10-11T11:03:14.729Z,55.80
2017-10-11T11:05:42.964Z,55.90
2017-10-11T11:08:10.414Z,55.80
2017-10-11T11:10:37.890Z,56.10
2017-10-11T11:13:05.354Z,55.80
2017-10-11T11:15:32.825Z,55.30
2017-10-11T11:18:00.290Z,55.30
2017-10-11T11:20:28.834Z,55.50
2017-10-11T11:22:56.281Z,55.10
2017-10-11T11:25:23.756Z,55.10
2017-10-11T11:27:51.250Z,55.30
2017-10-11T11:30:19.522Z,55.20
2017-10-11T11:32:47.745Z,55.50
2017-10-11T11:35:15.225Z,55.30
2017-10-11T11:37:42.698Z,55.50
2017-10-11T11:40:10.189Z,55.50
2017-10-11T11:42:37.633Z,56.20
2017-10-11T11:45:05.882Z,56.10
2017-10-11T11:47:33.337Z,56.00
2017-10-11T11:50:00.806Z,55.90
2017-10-11T11:52:28.589Z,55.70
2017-10-11T11:54:56.074Z,55.30
2017-10-11T11:57:23.525Z,55.10
2017-10-11T11:59:51.066Z,55.20
2017-10-11T12:02:19.305Z,54.60
2017-10-11T12:04:46.761Z,54.60
2017-10-11T12:07:14.246Z,54.90
2017-10-11T12:09:41.699Z,55.00
2017-10-11T12:12:09.187Z,55.10
2017-10-11T12:14:37.413Z,55.20
2017-10-11T12:17:04.875Z,55.20
2017-10-11T12:19:32.344Z,55.00
2017-10-11T12:21:59.808Z,54.90
2017-10-11T12:24:27.344Z,54.50
2017-10-11T12:26:54.880Z,54.70
2017-10-11T12:29:22.408Z,54.90
2017-10-11T12:31:50.631Z,55.00
2017-10-11T12:34:18.114Z,54.90
2017-10-11T12:36:45.586Z,55.10
2017-10-11T12:39:16.260Z,55.10
2017-10-11T12:41:43.869Z,55.10
2017-10-11T12:44:11.341Z,55.30
2017-10-11T12:46:39.589Z,55.70
2017-10-11T12:49:07.058Z,55.70
2017-10-11T12:51:34.525Z,55.50
2017-10-11T12:54:02.001Z,55.70
2017-10-11T12:56:29.507Z,55.70
2017-10-11T12:58:57.005Z,55.70
2017-10-11T13:01:24.482Z,56.00
2017-10-11T13:03:52.729Z,56.30
2017-10-11T13:06:20.198Z,56.30
2017-10-11T13:08:47.681Z,56.20
2017-10-11T13:11:15.938Z,55.60
2017-10-11T13:13:44.166Z,55.70
2017-10-11T13:16:11.617Z,55.60
2017-10-11T13:18:39.098Z,55.80
2017-10-11T13:21:06.586Z,55.70
2017-10-11T13:23:34.110Z,55.80
2017-10-11T13:26:01.561Z,55.70
2017-10-11T13:28:29.017Z,55.70
2017-10-11T13:30:56.502Z,55.60
2017-10-11T13:33:23.989Z,55.50
2017-10-11T13:35:51.442Z,55.60
2017-10-11T13:38:18.923Z,55.70
2017-10-11T13:40:46.382Z,55.90
2017-10-11T13:43:13.881Z,56.00
2017-10-11T13:45:41.364Z,55.70
2017-10-11T13:48:08.816Z,55.80
2017-10-11T13:50:36.310Z,55.80
2017-10-11T13:53:03.757Z,56.00
2017-10-11T13:55:31.969Z,56.00
2017-10-11T13:57:59.449Z,56.00
2017-10-11T14:00:26.918Z,56.10
2017-10-11T14:02:54.407Z,56.20
2017-10-11T14:05:22.621Z,56.20
2017-10-11T14:07:50.086Z,56.70
2017-10-11T14:10:17.588Z,56.10
2017-10-11T14:12:45.042Z,56.10
2017-10-11T14:15:12.486Z,56.30
2017-10-11T14:17:39.970Z,56.40
2017-10-11T14:20:08.246Z,56.30
2017-10-11T14:22:36.479Z,56.40
2017-10-11T14:25:03.933Z,56.30
2017-10-11T14:27:31.396Z,56.20
2017-10-11T14:29:58.885Z,56.10
2017-10-11T14:32:26.338Z,56.30
2017-10-11T14:34:53.797Z,56.30
2017-10-11T14:37:21.277Z,56.50
2017-10-11T14:39:49.500Z,56.40
2017-10-11T14:42:16.977Z,56.30
2017-10-11T14:44:44.429Z,56.30
2017-10-11T14:47:11.922Z,56.30
2017-10-11T14:49:40.191Z,56.20
2017-10-11T14:52:07.646Z,56.20
2017-10-11T14:54:35.134Z,56.00
2017-10-11T14:57:02.602Z,56.00
2017-10-11T14:59:30.054Z,56.50
2017-10-11T15:01:57.533Z,55.80
2017-10-11T15:04:24.997Z,55.90
2017-10-11T15:06:52.450Z,56.00
2017-10-11T15:09:19.963Z,56.10
2017-10-11T15:11:47.416Z,56.00
2017-10-11T15:14:14.870Z,56.00
2017-10-11T15:16:42.372Z,56.80
2017-10-11T15:19:09.893Z,56.30
2017-10-11T15:21:38.139Z,56.50
2017-10-11T15:24:05.594Z,56.50
2017-10-11T15:26:33.072Z,56.50
2017-10-11T15:29:00.525Z,56.60
2017-10-11T15:31:27.987Z,56.80
2017-10-11T15:33:55.504Z,56.90
2017-10-11T15:36:22.950Z,56.90
2017-10-11T15:38:50.435Z,57.00
2017-10-11T15:41:17.887Z,57.00
2017-10-11T15:43:45.342Z,56.90
2017-10-11T15:46:12.864Z,56.80
2017-10-11T15:48:40.297Z,56.80
2017-10-11T15:51:07.803Z,56.60
2017-10-11T15:53:35.285Z,56.50
2017-10-11T15:56:03.545Z,56.60
2017-10-11T15:58:31.001Z,56.60
2017-10-11T16:00:58.494Z,56.50
2017-10-11T16:03:25.956Z,56.30
2017-10-11T16:05:53.401Z,56.40
2017-10-11T16:08:20.885Z,56.30
2017-10-11T16:10:48.344Z,56.20
2017-10-11T16:13:15.803Z,56.20
2017-10-11T16:15:43.274Z,56.20
2017-10-11T16:18:11.499Z,56.00
2017-10-11T16:20:38.970Z,56.00
2017-10-11T16:23:06.450Z,56.00
2017-10-11T16:25:33.896Z,56.00
2017-10-11T16:28:01.344Z,55.80
2017-10-11T16:30:28.825Z,55.80
2017-10-11T16:32:56.309Z,55.70
2017-10-11T16:35:23.777Z,55.70
2017-10-11T16:37:51.225Z,55.90
2017-10-11T16:40:18.713Z,55.80
2017-10-11T16:42:46.165Z,55.90
2017-10-11T16:45:13.630Z,55.90
2017-10-11T16:47:41.087Z,55.90
2017-10-11T16:50:08.565Z,55.90
2017-10-11T16:52:36.025Z,55.90
2017-10-11T16:55:04.744Z,56.00
2017-10-11T16:57:32.239Z,56.00
2017-10-11T16:59:59.689Z,56.40
2017-10-11T17:02:27.141Z,56.10
2017-10-11T17:04:54.629Z,56.10
2017-10-11T17:07:22.081Z,56.00
2017-10-11T17:09:49.588Z,56.20
2017-10-11T17:12:17.058Z,56.30
2017-10-11T17:14:45.283Z,56.20
2017-10-11T17:17:12.741Z,56.20
2017-10-11T17:19:40.222Z,56.30
2017-10-11T17:22:07.693Z,56.40
2017-10-11T17:24:35.166Z,56.30
2017-10-11T17:27:03.409Z,56.50
2017-10-11T17:29:30.893Z,56.50
2017-10-11T17:31:59.312Z,56.50
2017-10-11T17:34:26.783Z,56.50
2017-10-11T17:36:55.345Z,56.70
2017-10-11T17:39:22.818Z,56.60
2017-10-11T17:41:50.293Z,56.70
2017-10-11T17:44:17.766Z,56.70
2017-10-11T17:46:45.233Z,56.70
2017-10-11T17:49:12.716Z,56.80
2017-10-11T17:51:40.162Z,56.80
2017-10-11T17:54:07.745Z,56.80
2017-10-11T17:56:35.202Z,56.90
2017-10-11T17:59:03.433Z,57.10
2017-10-11T18:01:31.062Z,57.10
2017-10-11T18:03:58.564Z,57.10
2017-10-11T18:06:26.066Z,57.10
2017-10-11T18:08:53.523Z,57.10
2017-10-11T18:11:20.998Z,57.10
2017-10-11T18:13:48.491Z,57.20
2017-10-11T18:16:15.945Z,57.20
2017-10-11T18:18:43.401Z,57.30
2017-10-11T18:21:10.869Z,57.40
2017-10-11T18:23:39.027Z,57.60
2017-10-11T18:26:06.564Z,57.60
2017-10-11T18:28:34.061Z,57.70
2017-10-11T18:31:01.901Z,57.80
2017-10-11T18:33:29.393Z,57.90
2017-10-11T18:35:56.881Z,57.90
2017-10-11T18:38:24.325Z,57.90
2017-10-11T18:40:52.025Z,58.00
2017-10-11T18:43:19.895Z,58.10
2017-10-11T18:45:47.753Z,58.20
2017-10-11T18:48:15.977Z,58.40
2017-10-11T18:50:43.691Z,58.60
2017-10-11T18:53:11.173Z,58.70
2017-10-11T18:55:38.690Z,58.70
2017-10-11T18:58:07.210Z,58.80
2017-10-11T19:00:34.999Z,58.70
2017-10-11T19:03:02.492Z,58.80
2017-10-11T19:05:30.718Z,59.10
2017-10-11T19:07:58.489Z,59.00
2017-10-11T19:10:26.070Z,59.10
2017-10-11T19:12:53.627Z,59.20
2017-10-11T19:15:21.383Z,59.20
2017-10-11T19:17:49.095Z,59.20
2017-10-11T19:20:17.510Z,59.30
2017-10-11T19:22:45.157Z,59.20
2017-10-11T19:25:12.764Z,59.20
2017-10-11T19:27:40.568Z,59.20
2017-10-11T19:30:08.417Z,59.30
2017-10-11T19:32:37.017Z,59.20
2017-10-11T19:35:05.607Z,59.30
2017-10-11T19:37:33.340Z,59.30
2017-10-11T19:40:01.127Z,59.20
2017-10-11T19:42:28.596Z,59.10
2017-10-11T19:44:56.260Z,59.20
2017-10-11T19:47:25.226Z,59.20
2017-10-11T19:49:53.042Z,59.10
2017-10-11T19:52:21.072Z,59.00
2017-10-11T19:54:48.576Z,59.00
2017-10-11T19:57:16.186Z,59.10
2017-10-11T19:59:43.699Z,59.10
2017-10-11T20:02:11.188Z,59.10
2017-10-11T20:04:38.653Z,59.20
2017-10-11T20:07:06.462Z,59.20
2017-10-11T20:09:33.925Z,59.10
2017-10-11T20:12:01.405Z,59.30
2017-10-11T20:14:28.892Z,59.10
2017-10-11T20:16:56.385Z,59.00
2017-10-11T20:19:23.849Z,58.90
2017-10-11T20:21:51.345Z,58.90
2017-10-11T20:24:18.841Z,58.80
2017-10-11T20:26:46.310Z,58.70
2017-10-11T20:29:14.537Z,58.60
2017-10-11T20:31:42.014Z,58.60
2017-10-11T20:34:09.494Z,58.50
2017-10-11T20:36:37.726Z,58.40
2017-10-11T20:39:05.211Z,58.40
2017-10-11T20:41:32.665Z,58.30
2017-10-11T20:44:00.133Z,58.30
2017-10-11T20:46:27.587Z,58.30
2017-10-11T20:48:55.055Z,58.40
2017-10-11T20:51:22.572Z,58.50
2017-10-11T20:53:50.054Z,58.60
2017-10-11T20:56:17.536Z,58.70
2017-10-11T20:58:45.833Z,58.70
2017-10-11T21:01:13.286Z,58.70
2017-10-11T21:03:41.618Z,58.70
2017-10-11T21:06:09.096Z,58.70
2017-10-11T21:08:36.689Z,58.70
2017-10-11T21:11:04.922Z,58.60
2017-10-11T21:13:32.429Z,58.60
2017-10-11T21:16:00.641Z,58.50
2017-10-11T21:18:28.098Z,58.50
2017-10-11T21:20:55.577Z,58.60
2017-10-11T21:23:23.067Z,58.50
2017-10-11T21:25:51.294Z,58.60
2017-10-11T21:28:18.758Z,58.60
2017-10-11T21:30:46.245Z,58.60
2017-10-11T21:33:14.485Z,58.40
2017-10-11T21:35:41.946Z,58.40
2017-10-11T21:38:09.442Z,58.40
2017-10-11T21:40:37.664Z,58.50
2017-10-11T21:43:05.122Z,58.50
2017-10-11T21:45:32.607Z,58.40
2017-10-11T21:48:00.840Z,58.40
2017-10-11T21:50:28.378Z,58.40
2017-10-11T21:52:56.622Z,58.50
2017-10-11T21:55:24.069Z,58.40
2017-10-11T21:57:51.547Z,58.30
2017-10-11T22:00:19.004Z,58.40
2017-10-11T22:02:46.498Z,58.40
2017-10-11T22:05:13.970Z,58.40
2017-10-11T22:07:41.428Z,58.30
2017-10-11T22:10:10.162Z,58.40
2017-10-11T22:12:37.622Z,58.30
2017-10-11T22:15:05.117Z,58.30
2017-10-11T22:17:32.589Z,58.40
2017-10-11T22:20:00.106Z,58.30
2017-10-11T22:22:27.605Z,58.30
2017-10-11T22:24:55.042Z,58.30
2017-10-11T22:27:23.300Z,58.30
2017-10-11T22:29:50.757Z,58.30
2017-10-11T22:32:18.218Z,58.40
2017-10-11T22:34:45.685Z,58.40
2017-10-11T22:37:13.938Z,58.40
2017-10-11T22:39:41.418Z,58.40
2017-10-11T22:42:11.298Z,58.30
2017-10-11T22:44:40.465Z,58.30
2017-10-11T22:47:07.950Z,58.30
2017-10-11T22:49:35.398Z,58.40
2017-10-11T22:52:02.854Z,58.40
2017-10-11T22:54:30.368Z,58.50
2017-10-11T22:56:58.597Z,58.70
2017-10-11T22:59:26.073Z,58.70
2017-10-11T23:01:53.528Z,58.80
2017-10-11T23:04:21.006Z,58.90
2017-10-11T23:06:48.458Z,59.10
2017-10-11T23:09:15.953Z,59.60
2017-10-11T23:11:43.435Z,60.00
2017-10-11T23:14:10.897Z,60.10
2017-10-11T23:16:38.395Z,60.10
2017-10-11T23:19:05.857Z,60.10
2017-10-11T23:21:33.305Z,60.00
2017-10-11T23:24:00.788Z,60.00
2017-10-11T23:26:29.018Z,60.30
2017-10-11T23:28:56.529Z,60.30
2017-10-11T23:31:23.982Z,61.30
2017-10-11T23:33:52.225Z,61.30
2017-10-11T23:36:19.682Z,61.30
2017-10-11T23:38:47.171Z,61.70
2017-10-11T23:41:15.400Z,62.20
2017-10-11T23:43:42.860Z,62.20
2017-10-11T23:46:11.272Z,62.60
2017-10-11T23:48:38.730Z,62.60
2017-10-11T23:51:06.188Z,62.90
2017-10-11T23:53:33.662Z,63.00
2017-10-11T23:56:01.881Z,63.40
2017-10-11T23:58:29.349Z,63.40
